sensor_id;sensor_type;location;lat;lon;timestamp;P1;durP1;ratioP1;P2;durP2;ratioP2
59607;SDS011;45426;44.726;10.390;2023-01-09T02:01:25;32.53;;;15.80;;
59607;SDS011;45426;44.726;10.390;2023-01-09T02:03:54;31.33;;;16.35;;
59607;SDS011;45426;44.726;10.390;2023-01-09T02:42:34;34.53;;;17.30;;
59607;SDS011;45426;44.726;10.390;2023-01-09T03:47:07;18.15;;;9.43;;
59607;SDS011;45426;44.726;10.390;2023-01-09T03:49:33;15.82;;;8.63;;
59607;SDS011;45426;44.726;10.390;2023-01-09T04:10:05;13.63;;;7.55;;
59607;SDS011;45426;44.726;10.390;2023-01-09T04:12:30;19.02;;;9.18;;
59607;SDS011;45426;44.726;10.390;2023-01-09T05:01:29;13.15;;;7.22;;
59607;SDS011;45426;44.726;10.390;2023-01-09T05:03:55;13.52;;;6.53;;
59607;SDS011;45426;44.726;10.390;2023-01-09T05:06:21;13.35;;;6.25;;
59607;SDS011;45426;44.726;10.390;2023-01-09T05:13:58;11.98;;;6.55;;
59607;SDS011;45426;44.726;10.390;2023-01-09T05:29:19;12.25;;;6.22;;
59607;SDS011;45426;44.726;10.390;2023-01-09T05:31:45;12.00;;;6.13;;
59607;SDS011;45426;44.726;10.390;2023-01-09T05:36:46;11.63;;;6.30;;
59607;SDS011;45426;44.726;10.390;2023-01-09T05:39:11;12.48;;;6.15;;
59607;SDS011;45426;44.726;10.390;2023-01-09T05:41:37;10.63;;;5.45;;
59607;SDS011;45426;44.726;10.390;2023-01-09T05:44:02;11.02;;;5.57;;
59607;SDS011;45426;44.726;10.390;2023-01-09T05:46:29;10.32;;;5.45;;
59607;SDS011;45426;44.726;10.390;2023-01-09T05:48:55;10.82;;;5.50;;
59607;SDS011;45426;44.726;10.390;2023-01-09T05:51:21;9.93;;;5.32;;
59607;SDS011;45426;44.726;10.390;2023-01-09T05:53:46;10.52;;;5.63;;
59607;SDS011;45426;44.726;10.390;2023-01-09T05:56:12;11.65;;;5.40;;
59607;SDS011;45426;44.726;10.390;2023-01-09T05:58:38;10.82;;;5.13;;
59607;SDS011;45426;44.726;10.390;2023-01-09T06:01:04;10.18;;;5.53;;
59607;SDS011;45426;44.726;10.390;2023-01-09T06:03:30;10.40;;;4.93;;
59607;SDS011;45426;44.726;10.390;2023-01-09T06:05:56;10.38;;;5.70;;
59607;SDS011;45426;44.726;10.390;2023-01-09T06:08:21;11.25;;;5.40;;
59607;SDS011;45426;44.726;10.390;2023-01-09T06:10:47;9.35;;;5.30;;
59607;SDS011;45426;44.726;10.390;2023-01-09T06:13:12;9.82;;;5.28;;
59607;SDS011;45426;44.726;10.390;2023-01-09T06:15:45;9.05;;;4.95;;
59607;SDS011;45426;44.726;10.390;2023-01-09T06:18:12;10.02;;;5.57;;
59607;SDS011;45426;44.726;10.390;2023-01-09T06:20:38;10.93;;;5.53;;
59607;SDS011;45426;44.726;10.390;2023-01-09T06:23:03;10.40;;;5.75;;
59607;SDS011;45426;44.726;10.390;2023-01-09T06:25:29;12.60;;;5.63;;
59607;SDS011;45426;44.726;10.390;2023-01-09T06:27:54;12.65;;;5.95;;
59607;SDS011;45426;44.726;10.390;2023-01-09T06:30:20;12.55;;;6.07;;
59607;SDS011;45426;44.726;10.390;2023-01-09T06:32:48;10.82;;;5.88;;
59607;SDS011;45426;44.726;10.390;2023-01-09T06:35:15;11.80;;;5.82;;
59607;SDS011;45426;44.726;10.390;2023-01-09T06:37:47;11.35;;;5.80;;
59607;SDS011;45426;44.726;10.390;2023-01-09T06:40:14;11.75;;;5.70;;
59607;SDS011;45426;44.726;10.390;2023-01-09T06:42:43;10.68;;;5.50;;
59607;SDS011;45426;44.726;10.390;2023-01-09T06:45:09;9.88;;;5.38;;
59607;SDS011;45426;44.726;10.390;2023-01-09T06:47:35;11.52;;;5.65;;
59607;SDS011;45426;44.726;10.390;2023-01-09T06:50:01;11.75;;;6.55;;
59607;SDS011;45426;44.726;10.390;2023-01-09T06:52:26;12.38;;;6.43;;
59607;SDS011;45426;44.726;10.390;2023-01-09T06:54:52;11.18;;;6.10;;
59607;SDS011;45426;44.726;10.390;2023-01-09T06:57:17;10.18;;;5.75;;
59607;SDS011;45426;44.726;10.390;2023-01-09T06:59:43;13.50;;;5.93;;
59607;SDS011;45426;44.726;10.390;2023-01-09T07:02:19;10.38;;;5.53;;
59607;SDS011;45426;44.726;10.390;2023-01-09T07:04:45;11.07;;;5.80;;
59607;SDS011;45426;44.726;10.390;2023-01-09T07:07:11;10.60;;;5.45;;
59607;SDS011;45426;44.726;10.390;2023-01-09T07:09:40;12.25;;;6.00;;
59607;SDS011;45426;44.726;10.390;2023-01-09T07:12:05;10.77;;;5.70;;
59607;SDS011;45426;44.726;10.390;2023-01-09T07:14:31;10.57;;;5.60;;
59607;SDS011;45426;44.726;10.390;2023-01-09T07:16:57;11.75;;;5.97;;
59607;SDS011;45426;44.726;10.390;2023-01-09T07:19:23;12.23;;;6.10;;
59607;SDS011;45426;44.726;10.390;2023-01-09T07:21:49;10.35;;;5.45;;
59607;SDS011;45426;44.726;10.390;2023-01-09T07:24:14;13.13;;;6.20;;
59607;SDS011;45426;44.726;10.390;2023-01-09T07:26:52;11.93;;;5.80;;
59607;SDS011;45426;44.726;10.390;2023-01-09T07:29:25;12.85;;;5.82;;
59607;SDS011;45426;44.726;10.390;2023-01-09T07:32:03;13.27;;;6.30;;
59607;SDS011;45426;44.726;10.390;2023-01-09T07:34:37;11.25;;;5.82;;
59607;SDS011;45426;44.726;10.390;2023-01-09T07:37:18;12.68;;;5.65;;
59607;SDS011;45426;44.726;10.390;2023-01-09T07:39:43;10.77;;;5.47;;
59607;SDS011;45426;44.726;10.390;2023-01-09T07:42:09;10.05;;;5.53;;
59607;SDS011;45426;44.726;10.390;2023-01-09T07:44:52;10.98;;;6.20;;
59607;SDS011;45426;44.726;10.390;2023-01-09T07:47:19;10.38;;;5.75;;
59607;SDS011;45426;44.726;10.390;2023-01-09T07:49:44;11.38;;;6.18;;
59607;SDS011;45426;44.726;10.390;2023-01-09T07:52:12;11.02;;;5.85;;
59607;SDS011;45426;44.726;10.390;2023-01-09T07:54:38;14.68;;;6.03;;
59607;SDS011;45426;44.726;10.390;2023-01-09T07:57:03;13.80;;;6.80;;
59607;SDS011;45426;44.726;10.390;2023-01-09T07:59:29;14.15;;;6.75;;
59607;SDS011;45426;44.726;10.390;2023-01-09T08:01:54;15.63;;;7.70;;
59607;SDS011;45426;44.726;10.390;2023-01-09T08:04:21;14.18;;;6.93;;
59607;SDS011;45426;44.726;10.390;2023-01-09T08:06:47;13.30;;;7.20;;
59607;SDS011;45426;44.726;10.390;2023-01-09T08:09:12;16.02;;;7.82;;
59607;SDS011;45426;44.726;10.390;2023-01-09T08:11:39;15.65;;;7.68;;
59607;SDS011;45426;44.726;10.390;2023-01-09T08:14:05;14.73;;;7.97;;
59607;SDS011;45426;44.726;10.390;2023-01-09T08:16:30;18.27;;;8.75;;
59607;SDS011;45426;44.726;10.390;2023-01-09T08:18:55;17.90;;;9.93;;
59607;SDS011;45426;44.726;10.390;2023-01-09T08:21:21;18.77;;;9.25;;
59607;SDS011;45426;44.726;10.390;2023-01-09T08:23:46;20.48;;;11.05;;
59607;SDS011;45426;44.726;10.390;2023-01-09T08:26:12;19.67;;;9.82;;
59607;SDS011;45426;44.726;10.390;2023-01-09T08:28:37;24.42;;;10.95;;
59607;SDS011;45426;44.726;10.390;2023-01-09T08:31:03;22.00;;;10.30;;
59607;SDS011;45426;44.726;10.390;2023-01-09T08:33:28;21.60;;;9.98;;
59607;SDS011;45426;44.726;10.390;2023-01-09T08:35:57;24.23;;;11.43;;
59607;SDS011;45426;44.726;10.390;2023-01-09T08:38:23;30.25;;;19.20;;
59607;SDS011;45426;44.726;10.390;2023-01-09T08:40:48;28.88;;;15.35;;
59607;SDS011;45426;44.726;10.390;2023-01-09T08:43:14;30.10;;;15.40;;
59607;SDS011;45426;44.726;10.390;2023-01-09T08:45:59;30.15;;;13.65;;
59607;SDS011;45426;44.726;10.390;2023-01-09T08:48:43;35.50;;;17.20;;
59607;SDS011;45426;44.726;10.390;2023-01-09T08:51:09;26.50;;;12.73;;
59607;SDS011;45426;44.726;10.390;2023-01-09T08:53:34;27.63;;;13.50;;
59607;SDS011;45426;44.726;10.390;2023-01-09T08:56:00;33.40;;;17.40;;
59607;SDS011;45426;44.726;10.390;2023-01-09T08:58:25;26.63;;;13.13;;
59607;SDS011;45426;44.726;10.390;2023-01-09T09:00:51;32.33;;;15.85;;
59607;SDS011;45426;44.726;10.390;2023-01-09T09:03:16;31.48;;;14.55;;
59607;SDS011;45426;44.726;10.390;2023-01-09T09:05:41;32.67;;;15.27;;
59607;SDS011;45426;44.726;10.390;2023-01-09T09:08:07;31.35;;;14.63;;
59607;SDS011;45426;44.726;10.390;2023-01-09T09:10:33;27.63;;;13.13;;
59607;SDS011;45426;44.726;10.390;2023-01-09T09:12:58;26.25;;;12.65;;
59607;SDS011;45426;44.726;10.390;2023-01-09T09:15:25;24.42;;;12.57;;
59607;SDS011;45426;44.726;10.390;2023-01-09T09:17:57;26.23;;;12.23;;
59607;SDS011;45426;44.726;10.390;2023-01-09T09:20:25;23.92;;;12.45;;
59607;SDS011;45426;44.726;10.390;2023-01-09T09:22:53;24.77;;;11.73;;
59607;SDS011;45426;44.726;10.390;2023-01-09T09:25:19;24.38;;;12.32;;
59607;SDS011;45426;44.726;10.390;2023-01-09T09:27:44;27.17;;;12.57;;
59607;SDS011;45426;44.726;10.390;2023-01-09T09:30:11;24.55;;;12.18;;
59607;SDS011;45426;44.726;10.390;2023-01-09T09:32:38;31.33;;;15.25;;
59607;SDS011;45426;44.726;10.390;2023-01-09T09:35:04;25.33;;;12.55;;
59607;SDS011;45426;44.726;10.390;2023-01-09T09:37:30;27.70;;;14.30;;
59607;SDS011;45426;44.726;10.390;2023-01-09T09:39:55;24.38;;;12.95;;
59607;SDS011;45426;44.726;10.390;2023-01-09T09:53:59;39.90;;;21.45;;
59607;SDS011;45426;44.726;10.390;2023-01-09T09:56:31;58.92;;;33.58;;
59607;SDS011;45426;44.726;10.390;2023-01-09T09:59:03;29.05;;;16.17;;
59607;SDS011;45426;44.726;10.390;2023-01-09T10:04:29;31.38;;;17.85;;
59607;SDS011;45426;44.726;10.390;2023-01-09T10:07:04;25.75;;;13.00;;
59607;SDS011;45426;44.726;10.390;2023-01-09T10:14:48;41.97;;;28.92;;
59607;SDS011;45426;44.726;10.390;2023-01-09T10:17:27;46.20;;;32.00;;
59607;SDS011;45426;44.726;10.390;2023-01-09T10:23:01;31.75;;;17.52;;
59607;SDS011;45426;44.726;10.390;2023-01-09T10:25:56;40.40;;;23.05;;
59607;SDS011;45426;44.726;10.390;2023-01-09T10:39:40;28.73;;;14.82;;
59607;SDS011;45426;44.726;10.390;2023-01-09T10:42:14;29.10;;;15.63;;
59607;SDS011;45426;44.726;10.390;2023-01-09T10:47:33;26.50;;;13.85;;
59607;SDS011;45426;44.726;10.390;2023-01-09T10:50:05;27.90;;;13.82;;
59607;SDS011;45426;44.726;10.390;2023-01-09T10:52:45;26.85;;;14.10;;
59607;SDS011;45426;44.726;10.390;2023-01-09T10:55:18;23.77;;;12.98;;
59607;SDS011;45426;44.726;10.390;2023-01-09T10:57:44;27.73;;;13.90;;
59607;SDS011;45426;44.726;10.390;2023-01-09T11:00:17;23.60;;;12.82;;
59607;SDS011;45426;44.726;10.390;2023-01-09T11:02:45;23.92;;;12.60;;
59607;SDS011;45426;44.726;10.390;2023-01-09T11:05:12;23.40;;;12.43;;
59607;SDS011;45426;44.726;10.390;2023-01-09T11:07:43;25.48;;;13.38;;
59607;SDS011;45426;44.726;10.390;2023-01-09T11:10:12;23.58;;;12.23;;
59607;SDS011;45426;44.726;10.390;2023-01-09T11:12:39;24.42;;;12.70;;
59607;SDS011;45426;44.726;10.390;2023-01-09T11:17:52;24.65;;;13.23;;
59607;SDS011;45426;44.726;10.390;2023-01-09T11:25:15;20.17;;;11.23;;
59607;SDS011;45426;44.726;10.390;2023-01-09T11:27:42;20.60;;;10.85;;
59607;SDS011;45426;44.726;10.390;2023-01-09T11:30:13;20.67;;;11.27;;
59607;SDS011;45426;44.726;10.390;2023-01-09T11:32:50;20.27;;;10.38;;
59607;SDS011;45426;44.726;10.390;2023-01-09T11:35:17;19.75;;;10.27;;
59607;SDS011;45426;44.726;10.390;2023-01-09T11:37:46;18.70;;;10.23;;
59607;SDS011;45426;44.726;10.390;2023-01-09T11:40:17;18.80;;;10.32;;
59607;SDS011;45426;44.726;10.390;2023-01-09T11:45:49;15.32;;;8.45;;
59607;SDS011;45426;44.726;10.390;2023-01-09T11:48:28;15.35;;;8.32;;
59607;SDS011;45426;44.726;10.390;2023-01-09T11:54:04;15.93;;;8.15;;
59607;SDS011;45426;44.726;10.390;2023-01-09T11:56:35;14.95;;;8.38;;
59607;SDS011;45426;44.726;10.390;2023-01-09T11:59:01;15.43;;;8.20;;
59607;SDS011;45426;44.726;10.390;2023-01-09T12:04:37;13.88;;;7.88;;
59607;SDS011;45426;44.726;10.390;2023-01-09T12:18:49;14.98;;;8.10;;
59607;SDS011;45426;44.726;10.390;2023-01-09T12:52:48;11.30;;;5.90;;
59607;SDS011;45426;44.726;10.390;2023-01-09T12:55:24;10.93;;;6.18;;
59607;SDS011;45426;44.726;10.390;2023-01-09T12:57:53;9.68;;;5.70;;
59607;SDS011;45426;44.726;10.390;2023-01-09T13:05:36;10.40;;;5.97;;
59607;SDS011;45426;44.726;10.390;2023-01-09T13:14:16;12.02;;;6.10;;
59607;SDS011;45426;44.726;10.390;2023-01-09T13:16:50;10.18;;;5.63;;
59607;SDS011;45426;44.726;10.390;2023-01-09T13:19:33;10.73;;;5.47;;
59607;SDS011;45426;44.726;10.390;2023-01-09T13:22:04;11.55;;;6.13;;
59607;SDS011;45426;44.726;10.390;2023-01-09T13:24:36;10.63;;;6.15;;
59607;SDS011;45426;44.726;10.390;2023-01-09T13:38:50;10.85;;;6.00;;
59607;SDS011;45426;44.726;10.390;2023-01-09T13:49:04;10.18;;;5.68;;
59607;SDS011;45426;44.726;10.390;2023-01-09T13:54:08;13.43;;;7.18;;
59607;SDS011;45426;44.726;10.390;2023-01-09T13:59:29;10.88;;;6.13;;
59607;SDS011;45426;44.726;10.390;2023-01-09T14:01:55;12.63;;;6.72;;
59607;SDS011;45426;44.726;10.390;2023-01-09T14:07:23;12.07;;;7.32;;
59607;SDS011;45426;44.726;10.390;2023-01-09T14:09:54;12.45;;;8.13;;
59607;SDS011;45426;44.726;10.390;2023-01-09T14:12:22;13.13;;;7.00;;
59607;SDS011;45426;44.726;10.390;2023-01-09T14:14:50;10.38;;;6.57;;
59607;SDS011;45426;44.726;10.390;2023-01-09T14:17:22;10.43;;;5.68;;
59607;SDS011;45426;44.726;10.390;2023-01-09T14:19:54;10.75;;;5.70;;
59607;SDS011;45426;44.726;10.390;2023-01-09T14:22:26;11.57;;;5.85;;
59607;SDS011;45426;44.726;10.390;2023-01-09T14:25:01;9.18;;;5.15;;
59607;SDS011;45426;44.726;10.390;2023-01-09T14:32:54;9.98;;;5.18;;
59607;SDS011;45426;44.726;10.390;2023-01-09T14:40:32;12.23;;;6.00;;
59607;SDS011;45426;44.726;10.390;2023-01-09T14:43:03;12.05;;;6.00;;
59607;SDS011;45426;44.726;10.390;2023-01-09T14:45:37;15.27;;;6.15;;
59607;SDS011;45426;44.726;10.390;2023-01-09T14:48:05;15.85;;;6.70;;
59607;SDS011;45426;44.726;10.390;2023-01-09T14:50:36;10.93;;;6.45;;
59607;SDS011;45426;44.726;10.390;2023-01-09T14:53:17;12.93;;;7.13;;
59607;SDS011;45426;44.726;10.390;2023-01-09T14:55:50;11.27;;;5.97;;
59607;SDS011;45426;44.726;10.390;2023-01-09T14:58:23;16.40;;;9.65;;
59607;SDS011;45426;44.726;10.390;2023-01-09T15:03:41;15.65;;;8.82;;
59607;SDS011;45426;44.726;10.390;2023-01-09T15:06:28;14.70;;;8.52;;
59607;SDS011;45426;44.726;10.390;2023-01-09T15:11:50;17.83;;;8.55;;
59607;SDS011;45426;44.726;10.390;2023-01-09T15:16:57;18.20;;;8.93;;
59607;SDS011;45426;44.726;10.390;2023-01-09T15:19:24;30.58;;;19.23;;
59607;SDS011;45426;44.726;10.390;2023-01-09T15:21:58;30.88;;;18.25;;
59607;SDS011;45426;44.726;10.390;2023-01-09T15:24:29;40.00;;;26.73;;
59607;SDS011;45426;44.726;10.390;2023-01-09T15:26:59;38.05;;;21.58;;
59607;SDS011;45426;44.726;10.390;2023-01-09T15:29:34;29.83;;;16.08;;
59607;SDS011;45426;44.726;10.390;2023-01-09T15:32:07;22.90;;;12.35;;
59607;SDS011;45426;44.726;10.390;2023-01-09T15:34:42;23.40;;;12.15;;
59607;SDS011;45426;44.726;10.390;2023-01-09T15:37:26;18.65;;;8.98;;
59607;SDS011;45426;44.726;10.390;2023-01-09T15:39:58;18.85;;;8.65;;
59607;SDS011;45426;44.726;10.390;2023-01-09T15:42:27;19.63;;;9.15;;
59607;SDS011;45426;44.726;10.390;2023-01-09T15:45:28;20.45;;;9.45;;
59607;SDS011;45426;44.726;10.390;2023-01-09T15:50:42;18.90;;;8.80;;
59607;SDS011;45426;44.726;10.390;2023-01-09T15:53:12;19.60;;;9.68;;
59607;SDS011;45426;44.726;10.390;2023-01-09T15:55:40;19.80;;;8.73;;
59607;SDS011;45426;44.726;10.390;2023-01-09T15:58:26;20.20;;;9.43;;
59607;SDS011;45426;44.726;10.390;2023-01-09T16:01:20;21.27;;;9.32;;
59607;SDS011;45426;44.726;10.390;2023-01-09T16:03:53;21.75;;;8.75;;
59607;SDS011;45426;44.726;10.390;2023-01-09T16:06:26;24.83;;;12.38;;
59607;SDS011;45426;44.726;10.390;2023-01-09T16:08:53;34.70;;;17.40;;
59607;SDS011;45426;44.726;10.390;2023-01-09T16:14:31;27.20;;;13.95;;
59607;SDS011;45426;44.726;10.390;2023-01-09T16:16:52;29.92;;;14.18;;
59607;SDS011;45426;44.726;10.390;2023-01-09T16:19:27;28.83;;;14.18;;
59607;SDS011;45426;44.726;10.390;2023-01-09T16:22:01;28.13;;;13.65;;
59607;SDS011;45426;44.726;10.390;2023-01-09T16:24:33;25.60;;;12.27;;
59607;SDS011;45426;44.726;10.390;2023-01-09T16:27:25;23.15;;;10.77;;
59607;SDS011;45426;44.726;10.390;2023-01-09T16:29:58;23.17;;;11.05;;
59607;SDS011;45426;44.726;10.390;2023-01-09T16:32:43;22.10;;;10.40;;
59607;SDS011;45426;44.726;10.390;2023-01-09T16:35:17;39.22;;;20.23;;
59607;SDS011;45426;44.726;10.390;2023-01-09T16:37:45;22.70;;;10.55;;
59607;SDS011;45426;44.726;10.390;2023-01-09T16:42:40;20.08;;;9.52;;
59607;SDS011;45426;44.726;10.390;2023-01-09T16:48:14;21.45;;;10.15;;
59607;SDS011;45426;44.726;10.390;2023-01-09T16:50:41;22.95;;;10.80;;
59607;SDS011;45426;44.726;10.390;2023-01-09T16:53:14;20.63;;;9.13;;
59607;SDS011;45426;44.726;10.390;2023-01-09T16:55:42;22.30;;;10.25;;
59607;SDS011;45426;44.726;10.390;2023-01-09T16:58:15;19.35;;;9.18;;
59607;SDS011;45426;44.726;10.390;2023-01-09T17:00:47;22.67;;;9.32;;
59607;SDS011;45426;44.726;10.390;2023-01-09T17:03:19;19.65;;;9.20;;
59607;SDS011;45426;44.726;10.390;2023-01-09T17:05:46;19.38;;;8.93;;
59607;SDS011;45426;44.726;10.390;2023-01-09T17:08:18;24.45;;;8.63;;
59607;SDS011;45426;44.726;10.390;2023-01-09T17:10:46;19.77;;;8.88;;
59607;SDS011;45426;44.726;10.390;2023-01-09T17:13:12;19.70;;;8.45;;
59607;SDS011;45426;44.726;10.390;2023-01-09T17:15:37;24.02;;;11.07;;
59607;SDS011;45426;44.726;10.390;2023-01-09T17:18:03;24.85;;;11.40;;
59607;SDS011;45426;44.726;10.390;2023-01-09T17:20:30;24.02;;;11.40;;
59607;SDS011;45426;44.726;10.390;2023-01-09T17:22:58;25.30;;;11.48;;
59607;SDS011;45426;44.726;10.390;2023-01-09T17:25:23;23.98;;;11.10;;
59607;SDS011;45426;44.726;10.390;2023-01-09T17:28:09;27.45;;;12.20;;
59607;SDS011;45426;44.726;10.390;2023-01-09T17:33:29;28.15;;;12.77;;
59607;SDS011;45426;44.726;10.390;2023-01-09T17:35:55;26.65;;;11.80;;
59607;SDS011;45426;44.726;10.390;2023-01-09T17:38:21;37.53;;;16.25;;
59607;SDS011;45426;44.726;10.390;2023-01-09T17:40:47;25.63;;;11.82;;
59607;SDS011;45426;44.726;10.390;2023-01-09T17:43:13;27.50;;;13.63;;
59607;SDS011;45426;44.726;10.390;2023-01-09T17:45:38;24.67;;;12.85;;
59607;SDS011;45426;44.726;10.390;2023-01-09T17:48:15;28.17;;;14.05;;
59607;SDS011;45426;44.726;10.390;2023-01-09T17:50:45;30.33;;;11.98;;
59607;SDS011;45426;44.726;10.390;2023-01-09T17:53:12;24.25;;;12.07;;
59607;SDS011;45426;44.726;10.390;2023-01-09T17:55:38;24.52;;;12.00;;
59607;SDS011;45426;44.726;10.390;2023-01-09T17:58:05;25.60;;;12.23;;
59607;SDS011;45426;44.726;10.390;2023-01-09T18:00:32;25.95;;;12.07;;
59607;SDS011;45426;44.726;10.390;2023-01-09T18:03:01;25.98;;;11.63;;
59607;SDS011;45426;44.726;10.390;2023-01-09T18:05:31;26.00;;;12.35;;
59607;SDS011;45426;44.726;10.390;2023-01-09T18:07:57;24.08;;;11.73;;
59607;SDS011;45426;44.726;10.390;2023-01-09T18:10:23;25.20;;;11.75;;
59607;SDS011;45426;44.726;10.390;2023-01-09T18:12:51;24.33;;;11.57;;
59607;SDS011;45426;44.726;10.390;2023-01-09T18:15:18;25.10;;;12.07;;
59607;SDS011;45426;44.726;10.390;2023-01-09T18:17:44;20.65;;;11.25;;
59607;SDS011;45426;44.726;10.390;2023-01-09T18:20:09;25.27;;;11.77;;
59607;SDS011;45426;44.726;10.390;2023-01-09T18:22:35;25.08;;;11.20;;
59607;SDS011;45426;44.726;10.390;2023-01-09T18:25:01;28.85;;;12.70;;
59607;SDS011;45426;44.726;10.390;2023-01-09T18:27:26;29.17;;;13.82;;
59607;SDS011;45426;44.726;10.390;2023-01-09T18:29:52;26.75;;;12.77;;
59607;SDS011;45426;44.726;10.390;2023-01-09T18:32:17;25.75;;;12.13;;
59607;SDS011;45426;44.726;10.390;2023-01-09T18:34:43;27.00;;;13.13;;
59607;SDS011;45426;44.726;10.390;2023-01-09T18:37:08;32.47;;;14.88;;
59607;SDS011;45426;44.726;10.390;2023-01-09T18:39:34;29.80;;;14.32;;
59607;SDS011;45426;44.726;10.390;2023-01-09T18:42:00;28.17;;;12.70;;
59607;SDS011;45426;44.726;10.390;2023-01-09T18:44:25;28.75;;;14.07;;
59607;SDS011;45426;44.726;10.390;2023-01-09T18:46:51;25.45;;;11.32;;
59607;SDS011;45426;44.726;10.390;2023-01-09T18:49:16;26.15;;;12.93;;
59607;SDS011;45426;44.726;10.390;2023-01-09T18:51:42;27.60;;;13.00;;
59607;SDS011;45426;44.726;10.390;2023-01-09T18:54:09;26.80;;;13.15;;
59607;SDS011;45426;44.726;10.390;2023-01-09T18:56:37;27.40;;;12.35;;
59607;SDS011;45426;44.726;10.390;2023-01-09T18:59:02;28.17;;;12.50;;
59607;SDS011;45426;44.726;10.390;2023-01-09T19:01:29;29.17;;;12.35;;
59607;SDS011;45426;44.726;10.390;2023-01-09T19:03:55;24.08;;;11.80;;
59607;SDS011;45426;44.726;10.390;2023-01-09T19:06:21;29.90;;;12.65;;
59607;SDS011;45426;44.726;10.390;2023-01-09T19:08:47;31.88;;;13.93;;
59607;SDS011;45426;44.726;10.390;2023-01-09T19:11:13;24.00;;;12.07;;
59607;SDS011;45426;44.726;10.390;2023-01-09T19:13:39;28.02;;;13.07;;
59607;SDS011;45426;44.726;10.390;2023-01-09T19:16:05;23.77;;;11.93;;
59607;SDS011;45426;44.726;10.390;2023-01-09T19:18:33;26.13;;;12.52;;
59607;SDS011;45426;44.726;10.390;2023-01-09T19:21:00;28.27;;;13.25;;
59607;SDS011;45426;44.726;10.390;2023-01-09T19:23:26;26.42;;;12.55;;
59607;SDS011;45426;44.726;10.390;2023-01-09T19:25:52;25.95;;;12.00;;
59607;SDS011;45426;44.726;10.390;2023-01-09T19:28:18;48.70;;;17.67;;
59607;SDS011;45426;44.726;10.390;2023-01-09T19:30:45;37.83;;;15.25;;
59607;SDS011;45426;44.726;10.390;2023-01-09T19:33:12;28.33;;;13.52;;
59607;SDS011;45426;44.726;10.390;2023-01-09T19:35:38;25.77;;;13.40;;
59607;SDS011;45426;44.726;10.390;2023-01-09T19:38:04;21.90;;;10.77;;
59607;SDS011;45426;44.726;10.390;2023-01-09T19:40:30;45.92;;;17.35;;
59607;SDS011;45426;44.726;10.390;2023-01-09T19:42:56;23.90;;;11.90;;
59607;SDS011;45426;44.726;10.390;2023-01-09T19:45:21;23.88;;;11.98;;
59607;SDS011;45426;44.726;10.390;2023-01-09T19:47:47;28.38;;;11.73;;
59607;SDS011;45426;44.726;10.390;2023-01-09T19:50:16;24.98;;;11.85;;
59607;SDS011;45426;44.726;10.390;2023-01-09T19:52:42;25.98;;;12.75;;
59607;SDS011;45426;44.726;10.390;2023-01-09T19:55:09;29.80;;;14.30;;
59607;SDS011;45426;44.726;10.390;2023-01-09T19:57:37;31.95;;;14.45;;
59607;SDS011;45426;44.726;10.390;2023-01-09T20:00:04;28.85;;;14.90;;
59607;SDS011;45426;44.726;10.390;2023-01-09T20:02:30;27.42;;;13.20;;
59607;SDS011;45426;44.726;10.390;2023-01-09T20:04:55;22.42;;;12.23;;
59607;SDS011;45426;44.726;10.390;2023-01-09T20:07:20;25.35;;;11.68;;
59607;SDS011;45426;44.726;10.390;2023-01-09T20:09:49;21.75;;;11.73;;
59607;SDS011;45426;44.726;10.390;2023-01-09T20:12:14;22.33;;;11.48;;
59607;SDS011;45426;44.726;10.390;2023-01-09T20:14:40;19.70;;;10.20;;
59607;SDS011;45426;44.726;10.390;2023-01-09T20:17:05;22.33;;;10.00;;
59607;SDS011;45426;44.726;10.390;2023-01-09T20:19:30;19.10;;;9.38;;
59607;SDS011;45426;44.726;10.390;2023-01-09T20:21:57;17.95;;;9.73;;
59607;SDS011;45426;44.726;10.390;2023-01-09T20:24:24;17.45;;;9.02;;
59607;SDS011;45426;44.726;10.390;2023-01-09T20:26:49;18.27;;;9.10;;
59607;SDS011;45426;44.726;10.390;2023-01-09T20:29:15;19.45;;;10.50;;
59607;SDS011;45426;44.726;10.390;2023-01-09T20:31:41;16.17;;;8.13;;
59607;SDS011;45426;44.726;10.390;2023-01-09T20:34:08;15.30;;;7.95;;
59607;SDS011;45426;44.726;10.390;2023-01-09T20:36:35;14.27;;;7.85;;
59607;SDS011;45426;44.726;10.390;2023-01-09T20:39:02;15.48;;;8.05;;
59607;SDS011;45426;44.726;10.390;2023-01-09T20:41:29;14.38;;;7.55;;
59607;SDS011;45426;44.726;10.390;2023-01-09T20:44:04;13.88;;;7.65;;
59607;SDS011;45426;44.726;10.390;2023-01-09T20:46:33;16.33;;;7.93;;
59607;SDS011;45426;44.726;10.390;2023-01-09T20:49:03;17.83;;;9.00;;
59607;SDS011;45426;44.726;10.390;2023-01-09T20:51:33;16.08;;;7.70;;
59607;SDS011;45426;44.726;10.390;2023-01-09T20:53:59;14.98;;;7.70;;
59607;SDS011;45426;44.726;10.390;2023-01-09T20:56:25;14.48;;;7.15;;
59607;SDS011;45426;44.726;10.390;2023-01-09T20:58:53;15.68;;;8.55;;
59607;SDS011;45426;44.726;10.390;2023-01-09T21:01:19;15.10;;;7.72;;
59607;SDS011;45426;44.726;10.390;2023-01-09T21:03:47;16.73;;;8.68;;
59607;SDS011;45426;44.726;10.390;2023-01-09T21:06:14;15.65;;;8.07;;
59607;SDS011;45426;44.726;10.390;2023-01-09T21:08:41;16.77;;;8.23;;
59607;SDS011;45426;44.726;10.390;2023-01-09T21:11:09;14.20;;;7.70;;
59607;SDS011;45426;44.726;10.390;2023-01-09T21:13:36;13.32;;;7.10;;
59607;SDS011;45426;44.726;10.390;2023-01-09T21:16:04;11.00;;;6.05;;
59607;SDS011;45426;44.726;10.390;2023-01-09T21:18:34;13.05;;;6.53;;
59607;SDS011;45426;44.726;10.390;2023-01-09T21:21:04;13.18;;;6.78;;
59607;SDS011;45426;44.726;10.390;2023-01-09T21:23:32;15.13;;;6.40;;
59607;SDS011;45426;44.726;10.390;2023-01-09T21:25:58;12.95;;;6.30;;
59607;SDS011;45426;44.726;10.390;2023-01-09T21:28:26;13.82;;;6.68;;
59607;SDS011;45426;44.726;10.390;2023-01-09T21:30:55;11.43;;;5.95;;
59607;SDS011;45426;44.726;10.390;2023-01-09T21:33:21;13.73;;;5.78;;
59607;SDS011;45426;44.726;10.390;2023-01-09T21:35:53;12.15;;;6.43;;
59607;SDS011;45426;44.726;10.390;2023-01-09T21:38:20;14.45;;;6.53;;
59607;SDS011;45426;44.726;10.390;2023-01-09T21:40:47;13.55;;;6.40;;
59607;SDS011;45426;44.726;10.390;2023-01-09T21:43:19;12.73;;;6.47;;
59607;SDS011;45426;44.726;10.390;2023-01-09T21:46:13;10.35;;;5.80;;
59607;SDS011;45426;44.726;10.390;2023-01-09T21:48:58;12.70;;;6.65;;
59607;SDS011;45426;44.726;10.390;2023-01-09T21:51:24;12.15;;;6.20;;
59607;SDS011;45426;44.726;10.390;2023-01-09T21:53:50;13.15;;;6.47;;
59607;SDS011;45426;44.726;10.390;2023-01-09T21:56:15;14.23;;;6.93;;
59607;SDS011;45426;44.726;10.390;2023-01-09T21:58:44;15.75;;;7.53;;
59607;SDS011;45426;44.726;10.390;2023-01-09T22:01:09;13.73;;;7.03;;
59607;SDS011;45426;44.726;10.390;2023-01-09T22:03:35;15.73;;;7.03;;
59607;SDS011;45426;44.726;10.390;2023-01-09T22:06:04;14.25;;;7.05;;
59607;SDS011;45426;44.726;10.390;2023-01-09T22:08:29;15.02;;;6.95;;
59607;SDS011;45426;44.726;10.390;2023-01-09T22:10:55;12.82;;;6.68;;
59607;SDS011;45426;44.726;10.390;2023-01-09T22:13:24;16.77;;;7.38;;
59607;SDS011;45426;44.726;10.390;2023-01-09T22:15:50;16.17;;;7.68;;
59607;SDS011;45426;44.726;10.390;2023-01-09T22:18:16;14.85;;;7.40;;